Impacts METAR Board INFO
IDs:

KTPA - Tampa Intl Arpt, FL, US

Updated at: 0436 UTC 22 Jan 2018
Potential Impact None Slight Moderate High
Time21/16Z 21/17Z 21/18Z 21/19Z 21/20Z 21/21Z 21/22Z 21/23Z 22/00Z 22/01Z 22/02Z 22/03Z 22/04Z
VIS10 10 10 10 10 10 10 10 10 10 10 10 10
CIG160 -- 36 -- -- -- -- -- -- -- -- -- --
CoverBKNFEWBKNSCTSCTSCTSCTFEWFEWCLRCLRCLRCLR
FltCatVFRVFRVFRVFRVFRVFRVFRVFRVFRVFRVFRVFRVFR
WX--------------------------
WDir01101601400060505000100110
WSpd3 5 8 5 0 3 4 3 3 0 6 6 6
WGst-- -- -- -- -- -- -- -- -- -- -- -- --
Raw hourly METARs
KTPA 211553Z VRB03KT 10SM BKN160 23/14 A3025 RMK AO2 SLP244 T02280139
KTPA 211653Z 11005KT 10SM FEW038 FEW160 24/14 A3023 RMK AO2 SLP235 T02390144
KTPA 211753Z 16008KT 10SM BKN036 BKN160 25/14 A3019 RMK AO2 SLP223 T02500144 10250 20150 58021
KTPA 211853Z 14005KT 10SM SCT044 25/14 A3016 RMK AO2 SLP211 T02500139
KTPA 211953Z 00000KT 10SM SCT046 26/13 A3013 RMK AO2 SLP202 T02610133
KTPA 212053Z VRB03KT 10SM SCT050 27/13 A3013 RMK AO2 SLP203 T02720133 56021
KTPA 212153Z 06004KT 10SM SCT050 26/13 A3013 RMK AO2 SLP202 T02610128
KTPA 212253Z 05003KT 10SM FEW048 25/12 A3014 RMK AO2 SLP204 T02500122
KTPA 212353Z 05003KT 10SM FEW050 23/13 A3014 RMK AO2 SLP206 T02330128 10272 20233 53004
KTPA 220053Z 00000KT 10SM CLR 22/13 A3015 RMK AO2 SLP208 T02220128
KTPA 220153Z VRB06KT 10SM CLR 22/14 A3015 RMK AO2 SLP210 T02220139
KTPA 220253Z 10006KT 10SM CLR 21/15 A3016 RMK AO2 SLP213 T02110150 53006
KTPA 220353Z 11006KT 10SM CLR 21/16 A3016 RMK AO2 SLP214 T02060156